Pecs, Hungary

8:42 AM CEST on October 23, 2014 (GMT +0200)
IBARANYA7 | Change Station
CLOSE
Current Station
Personal Weather Station
Location: Szederkeny, BARANYA
Elevation: 384 ft
Nearby Weather Stations

Elev 384 ft 46.00 °N, 18.46 °E | Updated 14 minutes ago

Mostly Cloudy
Mostly Cloudy
45.4 °F
Feels Like 44 °F
N
4.0
Wind Variable Wind from WNW
Gusts 6.0 mph

Today
High -- | Low -- °F
--% Chance of Precip.
Yesterday
High -- | Low -- °F
Precip. -- in
7:14 AM 5:47 PM
Waning Crescent, 0% visible
Pressure 29.71 in
Visibility 6.2 miles
Clouds Mostly Cloudy 3300 ft
Windchill 44 °F
Dew Point 42 °F
Humidity 86%
Rainfall 0.15 in
Snow Depth Not available.
UV 0 out of 12
Pollen Not available.
Air Quality Not available.
Flu Activity Not available.
METAR LDOS 230630Z 30008KT 9999 BKN033 07/06 Q1006

More Conditions Fewer Conditions

Pressure 29.71 in
Visibility 6.2 miles
Clouds Mostly Cloudy 3300 ft
Windchill 44 °F
Dew Point 42 °F
Humidity 86%
Rainfall 0.15 in
Snow Depth Not available.
UV 0 out of 12
Pollen Not available.
Air Quality Not available.
Flu Activity Not available.
METAR LDOS 230630Z 30008KT 9999 BKN033 07/06 Q1006

More Conditions Fewer Conditions

10-Day Weather Forecast

Almanac

Astronomy

Oct. 23, 2014 Rise Set
Actual Time 7:14 AM CEST 5:47 PM CEST
Civil Twilight 6:43 AM CEST 6:18 PM CEST
Nautical Twilight 6:09 AM CEST 6:52 PM CEST
Astronomical Twilight 5:34 AM CEST 7:27 PM CEST
Moon 6:34 AM CEST 5:39 PM CEST
Length of Visible Light 11h 34m
Length of Day
10h 33m
Tomorrow will be 3m 2s shorter.
Waning Crescent, 0% of the Moon is Illuminated
Today
Waning Crescent
Oct 23
New
Oct 30
First Quarter
Nov 6
Full
Nov 14
Last Quarter

Yesterday's Extremes

Country Highs Country Lows

Community

WunderPhotos

Upload Photos

1,764,194 photos uploaded!

Nearby

Snow Depth

Not available.

Earthquake Activity

City Distance Mag. Time & Date
No recent earthquake activity has been reported nearby.
Minimum magnitude displayed is 2.5.

Coastal Water Temperatures

Place Temperature
No Stations Reporting

Nearby Weather Stations